sensor_id;sensor_type;location;lat;lon;timestamp;temperature;humidity
13744;DHT22;6943;52.368;9.966;2023-04-03T00:01:28;1.30;99.90
13744;DHT22;6943;52.368;9.966;2023-04-03T00:03:54;1.30;99.90
13744;DHT22;6943;52.368;9.966;2023-04-03T00:06:20;1.20;99.90
13744;DHT22;6943;52.368;9.966;2023-04-03T00:08:45;1.10;99.90
13744;DHT22;6943;52.368;9.966;2023-04-03T00:11:11;1.10;99.90
13744;DHT22;6943;52.368;9.966;2023-04-03T00:13:37;1.00;99.90
13744;DHT22;6943;52.368;9.966;2023-04-03T00:16:03;1.00;1.00
13744;DHT22;6943;52.368;9.966;2023-04-03T00:18:29;0.90;1.00
13744;DHT22;6943;52.368;9.966;2023-04-03T00:20:55;1.00;1.00
13744;DHT22;6943;52.368;9.966;2023-04-03T00:23:21;1.00;1.00
13744;DHT22;6943;52.368;9.966;2023-04-03T00:25:49;1.00;1.00
13744;DHT22;6943;52.368;9.966;2023-04-03T00:28:15;0.90;1.00
13744;DHT22;6943;52.368;9.966;2023-04-03T00:30:40;0.90;1.00
13744;DHT22;6943;52.368;9.966;2023-04-03T00:33:06;0.90;1.00
13744;DHT22;6943;52.368;9.966;2023-04-03T00:35:32;0.90;1.00
13744;DHT22;6943;52.368;9.966;2023-04-03T00:37:59;0.90;1.00
13744;DHT22;6943;52.368;9.966;2023-04-03T00:40:25;0.80;1.00
13744;DHT22;6943;52.368;9.966;2023-04-03T00:42:56;0.80;1.00
13744;DHT22;6943;52.368;9.966;2023-04-03T00:45:29;0.70;1.00
13744;DHT22;6943;52.368;9.966;2023-04-03T00:47:56;0.70;1.00
13744;DHT22;6943;52.368;9.966;2023-04-03T00:50:22;0.70;1.00
13744;DHT22;6943;52.368;9.966;2023-04-03T00:52:48;0.80;1.00
13744;DHT22;6943;52.368;9.966;2023-04-03T00:55:15;0.70;1.00
13744;DHT22;6943;52.368;9.966;2023-04-03T00:57:41;0.70;1.00
13744;DHT22;6943;52.368;9.966;2023-04-03T01:00:10;0.70;1.00
13744;DHT22;6943;52.368;9.966;2023-04-03T01:02:37;0.70;1.00
13744;DHT22;6943;52.368;9.966;2023-04-03T01:05:03;0.70;1.00
13744;DHT22;6943;52.368;9.966;2023-04-03T01:07:30;0.70;1.00
13744;DHT22;6943;52.368;9.966;2023-04-03T01:09:59;0.80;1.00
13744;DHT22;6943;52.368;9.966;2023-04-03T01:12:34;0.70;1.00
13744;DHT22;6943;52.368;9.966;2023-04-03T01:15:05;0.70;1.00
13744;DHT22;6943;52.368;9.966;2023-04-03T01:17:38;0.70;1.00
13744;DHT22;6943;52.368;9.966;2023-04-03T01:25:42;0.50;1.00
13744;DHT22;6943;52.368;9.966;2023-04-03T01:28:15;0.50;1.00
13744;DHT22;6943;52.368;9.966;2023-04-03T01:31:24;0.60;1.00
13744;DHT22;6943;52.368;9.966;2023-04-03T01:33:50;0.50;1.00
13744;DHT22;6943;52.368;9.966;2023-04-03T01:36:20;0.50;1.00
13744;DHT22;6943;52.368;9.966;2023-04-03T01:38:46;0.50;1.00
13744;DHT22;6943;52.368;9.966;2023-04-03T01:41:11;0.50;1.00
13744;DHT22;6943;52.368;9.966;2023-04-03T01:43:37;0.40;1.00
13744;DHT22;6943;52.368;9.966;2023-04-03T01:46:02;0.40;1.00
13744;DHT22;6943;52.368;9.966;2023-04-03T01:48:28;0.40;1.00
13744;DHT22;6943;52.368;9.966;2023-04-03T01:50:54;0.30;1.00
13744;DHT22;6943;52.368;9.966;2023-04-03T01:53:19;0.40;1.00
13744;DHT22;6943;52.368;9.966;2023-04-03T01:55:45;0.40;1.00
13744;DHT22;6943;52.368;9.966;2023-04-03T01:58:10;0.30;1.00
13744;DHT22;6943;52.368;9.966;2023-04-03T02:00:36;0.30;93.40
13744;DHT22;6943;52.368;9.966;2023-04-03T02:03:02;0.20;99.90
13744;DHT22;6943;52.368;9.966;2023-04-03T02:05:28;0.20;99.90
13744;DHT22;6943;52.368;9.966;2023-04-03T02:07:53;0.20;99.90
13744;DHT22;6943;52.368;9.966;2023-04-03T02:10:19;0.20;99.90
13744;DHT22;6943;52.368;9.966;2023-04-03T02:12:44;0.20;1.00
13744;DHT22;6943;52.368;9.966;2023-04-03T02:15:10;0.20;1.00
13744;DHT22;6943;52.368;9.966;2023-04-03T02:17:36;0.20;1.00
13744;DHT22;6943;52.368;9.966;2023-04-03T02:20:01;0.20;1.00
13744;DHT22;6943;52.368;9.966;2023-04-03T02:22:28;0.10;1.00
13744;DHT22;6943;52.368;9.966;2023-04-03T02:24:54;0.20;1.00
13744;DHT22;6943;52.368;9.966;2023-04-03T02:27:19;0.10;1.00
13744;DHT22;6943;52.368;9.966;2023-04-03T02:29:45;0.10;1.00
13744;DHT22;6943;52.368;9.966;2023-04-03T02:32:10;0.00;1.00
13744;DHT22;6943;52.368;9.966;2023-04-03T02:34:36;0.10;1.00
13744;DHT22;6943;52.368;9.966;2023-04-03T02:37:01;0.00;41.00
13744;DHT22;6943;52.368;9.966;2023-04-03T02:39:27;0.00;21.80
13744;DHT22;6943;52.368;9.966;2023-04-03T02:41:52;0.00;99.90
13744;DHT22;6943;52.368;9.966;2023-04-03T02:44:18;0.00;99.90
13744;DHT22;6943;52.368;9.966;2023-04-03T02:46:44;-0.10;1.00
13744;DHT22;6943;52.368;9.966;2023-04-03T02:49:10;0.00;1.00
13744;DHT22;6943;52.368;9.966;2023-04-03T02:51:35;-0.10;1.00
13744;DHT22;6943;52.368;9.966;2023-04-03T02:54:01;-0.10;1.00
13744;DHT22;6943;52.368;9.966;2023-04-03T02:56:26;-0.10;1.00
13744;DHT22;6943;52.368;9.966;2023-04-03T02:58:52;-0.10;1.00
13744;DHT22;6943;52.368;9.966;2023-04-03T03:01:18;-0.10;1.00
13744;DHT22;6943;52.368;9.966;2023-04-03T03:03:43;-0.10;1.00
13744;DHT22;6943;52.368;9.966;2023-04-03T03:06:12;-0.10;1.00
13744;DHT22;6943;52.368;9.966;2023-04-03T03:08:38;-0.10;1.00
13744;DHT22;6943;52.368;9.966;2023-04-03T03:11:04;-0.20;1.00
13744;DHT22;6943;52.368;9.966;2023-04-03T03:13:30;-0.10;24.10
13744;DHT22;6943;52.368;9.966;2023-04-03T03:15:56;-0.10;1.00
13744;DHT22;6943;52.368;9.966;2023-04-03T03:18:22;-0.20;1.00
13744;DHT22;6943;52.368;9.966;2023-04-03T03:20:52;-0.20;1.00
13744;DHT22;6943;52.368;9.966;2023-04-03T03:23:17;-0.20;1.00
13744;DHT22;6943;52.368;9.966;2023-04-03T03:25:43;-0.20;1.00
13744;DHT22;6943;52.368;9.966;2023-04-03T03:28:09;-0.20;1.00
13744;DHT22;6943;52.368;9.966;2023-04-03T03:30:34;-0.20;1.00
13744;DHT22;6943;52.368;9.966;2023-04-03T03:33:00;-0.20;1.00
13744;DHT22;6943;52.368;9.966;2023-04-03T03:35:26;-0.30;1.00
13744;DHT22;6943;52.368;9.966;2023-04-03T03:37:52;-0.30;1.00
13744;DHT22;6943;52.368;9.966;2023-04-03T03:40:17;-0.30;1.00
13744;DHT22;6943;52.368;9.966;2023-04-03T03:42:43;-0.30;1.00
13744;DHT22;6943;52.368;9.966;2023-04-03T03:45:08;-0.30;1.00
13744;DHT22;6943;52.368;9.966;2023-04-03T03:47:34;-0.30;1.00
13744;DHT22;6943;52.368;9.966;2023-04-03T03:50:00;-0.30;1.00
13744;DHT22;6943;52.368;9.966;2023-04-03T03:52:26;-0.30;1.00
13744;DHT22;6943;52.368;9.966;2023-04-03T03:54:52;-0.30;1.00
13744;DHT22;6943;52.368;9.966;2023-04-03T03:57:18;-0.30;1.00
13744;DHT22;6943;52.368;9.966;2023-04-03T03:59:43;-0.40;1.00
13744;DHT22;6943;52.368;9.966;2023-04-03T04:02:09;-0.30;1.00
13744;DHT22;6943;52.368;9.966;2023-04-03T04:04:35;-0.30;77.50
13744;DHT22;6943;52.368;9.966;2023-04-03T04:07:01;-0.30;1.00
13744;DHT22;6943;52.368;9.966;2023-04-03T04:09:27;-0.30;1.00
13744;DHT22;6943;52.368;9.966;2023-04-03T04:11:52;-0.30;1.00
13744;DHT22;6943;52.368;9.966;2023-04-03T04:14:18;-0.40;1.00
13744;DHT22;6943;52.368;9.966;2023-04-03T04:16:46;-0.40;1.00
13744;DHT22;6943;52.368;9.966;2023-04-03T04:19:11;-0.40;1.00
13744;DHT22;6943;52.368;9.966;2023-04-03T04:21:37;-0.40;1.00
13744;DHT22;6943;52.368;9.966;2023-04-03T04:24:02;-0.40;99.90
13744;DHT22;6943;52.368;9.966;2023-04-03T04:26:28;-0.40;17.80
13744;DHT22;6943;52.368;9.966;2023-04-03T04:28:53;-0.40;28.30
13744;DHT22;6943;52.368;9.966;2023-04-03T04:31:19;-0.40;25.40
13744;DHT22;6943;52.368;9.966;2023-04-03T04:33:44;-0.30;35.30
13744;DHT22;6943;52.368;9.966;2023-04-03T04:36:10;-0.30;1.00
13744;DHT22;6943;52.368;9.966;2023-04-03T04:38:35;-0.40;1.00
13744;DHT22;6943;52.368;9.966;2023-04-03T04:41:01;-0.40;1.00
13744;DHT22;6943;52.368;9.966;2023-04-03T04:43:26;-0.40;92.00
13744;DHT22;6943;52.368;9.966;2023-04-03T04:46:11;-0.40;1.00
13744;DHT22;6943;52.368;9.966;2023-04-03T04:48:37;-0.40;1.00
13744;DHT22;6943;52.368;9.966;2023-04-03T04:51:03;-0.40;96.80
13744;DHT22;6943;52.368;9.966;2023-04-03T04:53:29;-0.40;48.10
13744;DHT22;6943;52.368;9.966;2023-04-03T04:55:54;-0.40;26.30
13744;DHT22;6943;52.368;9.966;2023-04-03T04:58:20;-0.30;33.40
13744;DHT22;6943;52.368;9.966;2023-04-03T05:00:46;-0.30;1.00
13744;DHT22;6943;52.368;9.966;2023-04-03T05:03:11;-0.30;1.00
13744;DHT22;6943;52.368;9.966;2023-04-03T05:05:37;-0.30;1.00
13744;DHT22;6943;52.368;9.966;2023-04-03T05:08:04;-0.20;1.00
13744;DHT22;6943;52.368;9.966;2023-04-03T05:10:29;0.00;1.00
13744;DHT22;6943;52.368;9.966;2023-04-03T05:12:55;0.00;99.90
13744;DHT22;6943;52.368;9.966;2023-04-03T05:15:21;0.10;1.00
13744;DHT22;6943;52.368;9.966;2023-04-03T05:17:46;0.80;99.90
13744;DHT22;6943;52.368;9.966;2023-04-03T05:20:12;1.90;1.00
13744;DHT22;6943;52.368;9.966;2023-04-03T05:22:38;3.00;1.00
13744;DHT22;6943;52.368;9.966;2023-04-03T05:25:04;3.80;99.90
13744;DHT22;6943;52.368;9.966;2023-04-03T05:27:30;5.20;1.00
13744;DHT22;6943;52.368;9.966;2023-04-03T05:29:55;6.30;1.00
13744;DHT22;6943;52.368;9.966;2023-04-03T05:32:22;6.90;1.00
13744;DHT22;6943;52.368;9.966;2023-04-03T05:34:48;7.70;99.90
13744;DHT22;6943;52.368;9.966;2023-04-03T05:37:14;8.10;99.90
13744;DHT22;6943;52.368;9.966;2023-04-03T05:39:39;8.20;99.90
13744;DHT22;6943;52.368;9.966;2023-04-03T05:42:07;8.90;99.90
13744;DHT22;6943;52.368;9.966;2023-04-03T05:44:33;9.70;99.90
13744;DHT22;6943;52.368;9.966;2023-04-03T05:46:58;10.10;99.90
13744;DHT22;6943;52.368;9.966;2023-04-03T05:49:24;11.20;99.90
13744;DHT22;6943;52.368;9.966;2023-04-03T05:51:50;11.80;99.90
13744;DHT22;6943;52.368;9.966;2023-04-03T05:54:25;12.80;99.90
13744;DHT22;6943;52.368;9.966;2023-04-03T05:56:51;13.20;99.90
13744;DHT22;6943;52.368;9.966;2023-04-03T05:59:18;13.40;99.90
13744;DHT22;6943;52.368;9.966;2023-04-03T06:01:44;12.00;99.90
13744;DHT22;6943;52.368;9.966;2023-04-03T06:04:10;12.30;99.90
13744;DHT22;6943;52.368;9.966;2023-04-03T06:06:50;13.00;99.90
13744;DHT22;6943;52.368;9.966;2023-04-03T06:09:25;13.30;99.90
13744;DHT22;6943;52.368;9.966;2023-04-03T06:11:51;13.10;99.90
13744;DHT22;6943;52.368;9.966;2023-04-03T06:14:17;13.50;99.90
13744;DHT22;6943;52.368;9.966;2023-04-03T06:16:43;12.20;99.90
13744;DHT22;6943;52.368;9.966;2023-04-03T06:19:09;12.10;99.90
13744;DHT22;6943;52.368;9.966;2023-04-03T06:21:35;11.90;99.90
13744;DHT22;6943;52.368;9.966;2023-04-03T06:24:02;13.90;99.90
13744;DHT22;6943;52.368;9.966;2023-04-03T06:26:28;15.40;99.90
13744;DHT22;6943;52.368;9.966;2023-04-03T06:28:53;16.50;99.90
13744;DHT22;6943;52.368;9.966;2023-04-03T06:31:19;15.50;99.90
13744;DHT22;6943;52.368;9.966;2023-04-03T06:33:45;16.00;99.90
13744;DHT22;6943;52.368;9.966;2023-04-03T06:36:11;17.10;99.90
13744;DHT22;6943;52.368;9.966;2023-04-03T06:38:37;16.70;99.90
13744;DHT22;6943;52.368;9.966;2023-04-03T06:41:03;17.40;99.90
13744;DHT22;6943;52.368;9.966;2023-04-03T06:43:28;17.70;99.90
13744;DHT22;6943;52.368;9.966;2023-04-03T06:45:54;17.20;99.90
13744;DHT22;6943;52.368;9.966;2023-04-03T06:48:19;15.30;99.90
13744;DHT22;6943;52.368;9.966;2023-04-03T06:50:46;15.40;99.90
13744;DHT22;6943;52.368;9.966;2023-04-03T06:53:11;16.90;99.90
13744;DHT22;6943;52.368;9.966;2023-04-03T06:55:37;16.20;99.90
13744;DHT22;6943;52.368;9.966;2023-04-03T06:58:03;15.10;99.90
13744;DHT22;6943;52.368;9.966;2023-04-03T07:00:30;15.90;99.90
13744;DHT22;6943;52.368;9.966;2023-04-03T07:02:56;17.20;99.90
13744;DHT22;6943;52.368;9.966;2023-04-03T07:05:23;15.40;99.90
13744;DHT22;6943;52.368;9.966;2023-04-03T07:07:48;15.10;99.90
13744;DHT22;6943;52.368;9.966;2023-04-03T07:10:15;14.40;99.90
13744;DHT22;6943;52.368;9.966;2023-04-03T07:12:41;15.30;99.90
13744;DHT22;6943;52.368;9.966;2023-04-03T07:15:07;17.60;99.90
13744;DHT22;6943;52.368;9.966;2023-04-03T07:17:33;17.30;99.90
13744;DHT22;6943;52.368;9.966;2023-04-03T07:19:59;15.20;99.90
13744;DHT22;6943;52.368;9.966;2023-04-03T07:22:25;16.10;99.90
13744;DHT22;6943;52.368;9.966;2023-04-03T07:24:50;17.00;99.90
13744;DHT22;6943;52.368;9.966;2023-04-03T07:27:16;17.60;99.90
13744;DHT22;6943;52.368;9.966;2023-04-03T07:29:43;17.30;99.90
13744;DHT22;6943;52.368;9.966;2023-04-03T07:32:09;15.40;99.90
13744;DHT22;6943;52.368;9.966;2023-04-03T07:34:35;13.40;99.90
13744;DHT22;6943;52.368;9.966;2023-04-03T07:37:01;13.50;99.90
13744;DHT22;6943;52.368;9.966;2023-04-03T07:39:27;14.70;99.90
13744;DHT22;6943;52.368;9.966;2023-04-03T07:41:53;15.40;99.90
13744;DHT22;6943;52.368;9.966;2023-04-03T07:44:20;13.60;99.90
13744;DHT22;6943;52.368;9.966;2023-04-03T07:46:46;14.20;99.90
13744;DHT22;6943;52.368;9.966;2023-04-03T07:49:12;13.30;99.90
13744;DHT22;6943;52.368;9.966;2023-04-03T07:51:37;12.90;99.90
13744;DHT22;6943;52.368;9.966;2023-04-03T07:54:03;12.00;99.90
13744;DHT22;6943;52.368;9.966;2023-04-03T07:56:29;11.90;99.90
13744;DHT22;6943;52.368;9.966;2023-04-03T07:58:54;12.30;99.90
13744;DHT22;6943;52.368;9.966;2023-04-03T08:01:20;11.50;99.90
13744;DHT22;6943;52.368;9.966;2023-04-03T08:03:46;10.80;99.90
13744;DHT22;6943;52.368;9.966;2023-04-03T08:06:11;11.30;99.90
13744;DHT22;6943;52.368;9.966;2023-04-03T08:08:38;11.10;99.90
13744;DHT22;6943;52.368;9.966;2023-04-03T08:11:04;11.90;99.90
13744;DHT22;6943;52.368;9.966;2023-04-03T08:13:31;11.10;99.90
13744;DHT22;6943;52.368;9.966;2023-04-03T08:15:57;11.20;99.90
13744;DHT22;6943;52.368;9.966;2023-04-03T08:18:24;10.50;99.90
13744;DHT22;6943;52.368;9.966;2023-04-03T08:20:51;10.90;99.90
13744;DHT22;6943;52.368;9.966;2023-04-03T08:23:18;12.60;99.90
13744;DHT22;6943;52.368;9.966;2023-04-03T08:25:44;13.60;99.90
13744;DHT22;6943;52.368;9.966;2023-04-03T08:28:11;13.20;99.90
13744;DHT22;6943;52.368;9.966;2023-04-03T08:30:39;12.80;99.90
13744;DHT22;6943;52.368;9.966;2023-04-03T08:33:05;13.30;99.90
13744;DHT22;6943;52.368;9.966;2023-04-03T08:35:31;12.90;99.90
13744;DHT22;6943;52.368;9.966;2023-04-03T08:37:56;11.90;99.90
13744;DHT22;6943;52.368;9.966;2023-04-03T08:40:22;10.50;99.90
13744;DHT22;6943;52.368;9.966;2023-04-03T08:43:21;10.00;99.90
13744;DHT22;6943;52.368;9.966;2023-04-03T08:45:55;11.40;99.90
13744;DHT22;6943;52.368;9.966;2023-04-03T08:48:27;9.40;99.90
13744;DHT22;6943;52.368;9.966;2023-04-03T08:50:58;7.90;99.90
13744;DHT22;6943;52.368;9.966;2023-04-03T08:53:30;8.30;99.90
13744;DHT22;6943;52.368;9.966;2023-04-03T08:55:58;8.90;99.90
13744;DHT22;6943;52.368;9.966;2023-04-03T08:58:30;10.00;99.90
13744;DHT22;6943;52.368;9.966;2023-04-03T09:01:15;10.60;99.90
13744;DHT22;6943;52.368;9.966;2023-04-03T09:03:42;9.30;99.90
13744;DHT22;6943;52.368;9.966;2023-04-03T09:06:13;8.70;99.90
13744;DHT22;6943;52.368;9.966;2023-04-03T09:08:45;9.40;99.90
13744;DHT22;6943;52.368;9.966;2023-04-03T09:13:59;9.00;99.90
13744;DHT22;6943;52.368;9.966;2023-04-03T09:16:43;8.10;99.90
13744;DHT22;6943;52.368;9.966;2023-04-03T09:24:34;8.90;99.90
13744;DHT22;6943;52.368;9.966;2023-04-03T09:27:04;9.40;99.90
13744;DHT22;6943;52.368;9.966;2023-04-03T09:29:32;9.20;99.90
13744;DHT22;6943;52.368;9.966;2023-04-03T09:32:02;7.80;99.90
13744;DHT22;6943;52.368;9.966;2023-04-03T09:34:39;7.80;99.90
13744;DHT22;6943;52.368;9.966;2023-04-03T09:37:07;7.80;99.90
13744;DHT22;6943;52.368;9.966;2023-04-03T09:39:52;7.30;99.90
13744;DHT22;6943;52.368;9.966;2023-04-03T09:42:23;7.10;99.90
13744;DHT22;6943;52.368;9.966;2023-04-03T09:44:57;7.50;99.90
13744;DHT22;6943;52.368;9.966;2023-04-03T09:47:33;7.20;99.90
13744;DHT22;6943;52.368;9.966;2023-04-03T09:52:35;7.00;99.90
13744;DHT22;6943;52.368;9.966;2023-04-03T09:55:13;7.10;99.90
13744;DHT22;6943;52.368;9.966;2023-04-03T09:57:39;6.90;99.90
13744;DHT22;6943;52.368;9.966;2023-04-03T10:00:05;7.40;99.90
13744;DHT22;6943;52.368;9.966;2023-04-03T10:02:38;7.40;99.90
13744;DHT22;6943;52.368;9.966;2023-04-03T10:05:26;7.80;99.90
13744;DHT22;6943;52.368;9.966;2023-04-03T10:07:50;7.90;99.90
13744;DHT22;6943;52.368;9.966;2023-04-03T10:10:20;7.60;99.90
13744;DHT22;6943;52.368;9.966;2023-04-03T10:12:48;7.50;99.90
13744;DHT22;6943;52.368;9.966;2023-04-03T10:15:16;7.10;99.90
13744;DHT22;6943;52.368;9.966;2023-04-03T10:17:49;6.90;99.90
13744;DHT22;6943;52.368;9.966;2023-04-03T10:29:02;6.80;99.90
13744;DHT22;6943;52.368;9.966;2023-04-03T10:34:42;7.30;99.90
13744;DHT22;6943;52.368;9.966;2023-04-03T10:37:25;7.20;99.90
13744;DHT22;6943;52.368;9.966;2023-04-03T10:42:50;8.00;99.90
13744;DHT22;6943;52.368;9.966;2023-04-03T10:45:30;8.50;99.90
13744;DHT22;6943;52.368;9.966;2023-04-03T10:48:24;8.50;99.90
13744;DHT22;6943;52.368;9.966;2023-04-03T10:54:05;8.20;99.90
13744;DHT22;6943;52.368;9.966;2023-04-03T10:56:39;7.80;99.90
13744;DHT22;6943;52.368;9.966;2023-04-03T10:59:26;7.50;99.90
13744;DHT22;6943;52.368;9.966;2023-04-03T11:02:00;7.80;99.90
13744;DHT22;6943;52.368;9.966;2023-04-03T11:04:30;7.80;99.90
13744;DHT22;6943;52.368;9.966;2023-04-03T11:07:20;7.70;99.90
13744;DHT22;6943;52.368;9.966;2023-04-03T11:09:56;7.20;99.90
13744;DHT22;6943;52.368;9.966;2023-04-03T11:12:43;7.60;99.90
13744;DHT22;6943;52.368;9.966;2023-04-03T11:15:18;6.80;99.90
13744;DHT22;6943;52.368;9.966;2023-04-03T11:17:53;7.00;99.90
13744;DHT22;6943;52.368;9.966;2023-04-03T11:20:31;7.10;99.90
13744;DHT22;6943;52.368;9.966;2023-04-03T11:23:17;6.80;99.90
13744;DHT22;6943;52.368;9.966;2023-04-03T11:25:46;6.80;99.90
13744;DHT22;6943;52.368;9.966;2023-04-03T11:28:15;6.90;99.90
13744;DHT22;6943;52.368;9.966;2023-04-03T11:30:56;7.20;99.90
13744;DHT22;6943;52.368;9.966;2023-04-03T11:36:25;7.90;99.90
13744;DHT22;6943;52.368;9.966;2023-04-03T11:38:57;7.70;99.90
13744;DHT22;6943;52.368;9.966;2023-04-03T11:41:31;7.80;99.90
13744;DHT22;6943;52.368;9.966;2023-04-03T11:44:04;8.20;99.90
13744;DHT22;6943;52.368;9.966;2023-04-03T11:46:49;7.60;99.90
13744;DHT22;6943;52.368;9.966;2023-04-03T11:49:51;7.70;99.90
13744;DHT22;6943;52.368;9.966;2023-04-03T11:58:03;8.20;99.90
13744;DHT22;6943;52.368;9.966;2023-04-03T12:05:52;8.20;99.90
13744;DHT22;6943;52.368;9.966;2023-04-03T12:13:41;8.10;99.90
13744;DHT22;6943;52.368;9.966;2023-04-03T12:16:19;7.80;99.90
13744;DHT22;6943;52.368;9.966;2023-04-03T12:21:16;7.10;99.90
13744;DHT22;6943;52.368;9.966;2023-04-03T12:24:13;7.00;99.90
13744;DHT22;6943;52.368;9.966;2023-04-03T12:35:09;7.80;99.90
13744;DHT22;6943;52.368;9.966;2023-04-03T12:37:56;7.60;99.90
13744;DHT22;6943;52.368;9.966;2023-04-03T12:48:57;7.40;99.90
13744;DHT22;6943;52.368;9.966;2023-04-03T12:51:39;7.60;99.90
13744;DHT22;6943;52.368;9.966;2023-04-03T12:54:32;8.10;99.90
13744;DHT22;6943;52.368;9.966;2023-04-03T12:57:21;8.00;99.90
13744;DHT22;6943;52.368;9.966;2023-04-03T12:59:48;7.80;99.90
13744;DHT22;6943;52.368;9.966;2023-04-03T13:02:26;7.70;99.90
13744;DHT22;6943;52.368;9.966;2023-04-03T13:04:55;7.90;99.90
13744;DHT22;6943;52.368;9.966;2023-04-03T13:07:29;7.90;99.90
13744;DHT22;6943;52.368;9.966;2023-04-03T13:09:59;8.10;99.90
13744;DHT22;6943;52.368;9.966;2023-04-03T13:12:25;8.00;99.90
13744;DHT22;6943;52.368;9.966;2023-04-03T13:14:53;7.90;99.90
13744;DHT22;6943;52.368;9.966;2023-04-03T13:17:19;7.90;99.90
13744;DHT22;6943;52.368;9.966;2023-04-03T13:19:46;7.60;99.90
13744;DHT22;6943;52.368;9.966;2023-04-03T13:22:33;7.80;99.90
13744;DHT22;6943;52.368;9.966;2023-04-03T13:25:06;8.20;99.90
13744;DHT22;6943;52.368;9.966;2023-04-03T13:27:32;8.20;99.90
13744;DHT22;6943;52.368;9.966;2023-04-03T13:30:00;8.20;99.90
13744;DHT22;6943;52.368;9.966;2023-04-03T13:32:28;8.10;99.90
13744;DHT22;6943;52.368;9.966;2023-04-03T13:34:56;7.90;99.90
13744;DHT22;6943;52.368;9.966;2023-04-03T13:37:33;8.40;99.90
13744;DHT22;6943;52.368;9.966;2023-04-03T13:40:11;7.90;99.90
13744;DHT22;6943;52.368;9.966;2023-04-03T13:42:39;8.30;99.90
13744;DHT22;6943;52.368;9.966;2023-04-03T13:47:48;8.30;99.90
13744;DHT22;6943;52.368;9.966;2023-04-03T13:50:19;8.40;99.90
13744;DHT22;6943;52.368;9.966;2023-04-03T13:52:53;8.40;99.90
13744;DHT22;6943;52.368;9.966;2023-04-03T13:58:22;9.10;99.90
13744;DHT22;6943;52.368;9.966;2023-04-03T14:00:52;8.30;99.90
13744;DHT22;6943;52.368;9.966;2023-04-03T14:05:55;7.40;99.90
13744;DHT22;6943;52.368;9.966;2023-04-03T14:08:21;7.40;99.90
13744;DHT22;6943;52.368;9.966;2023-04-03T14:10:48;7.90;99.90
13744;DHT22;6943;52.368;9.966;2023-04-03T14:13:16;8.00;99.90
13744;DHT22;6943;52.368;9.966;2023-04-03T14:15:42;8.10;99.90
13744;DHT22;6943;52.368;9.966;2023-04-03T14:18:13;8.10;99.90
13744;DHT22;6943;52.368;9.966;2023-04-03T14:20:39;7.80;99.90
13744;DHT22;6943;52.368;9.966;2023-04-03T14:23:05;7.90;99.90
13744;DHT22;6943;52.368;9.966;2023-04-03T14:25:31;8.10;99.90
13744;DHT22;6943;52.368;9.966;2023-04-03T14:27:57;7.90;99.90
13744;DHT22;6943;52.368;9.966;2023-04-03T14:30:29;7.90;99.90
13744;DHT22;6943;52.368;9.966;2023-04-03T14:32:55;8.00;99.90
13744;DHT22;6943;52.368;9.966;2023-04-03T14:35:22;7.80;99.90
13744;DHT22;6943;52.368;9.966;2023-04-03T14:37:48;7.70;99.90
13744;DHT22;6943;52.368;9.966;2023-04-03T14:40:32;8.00;99.90
13744;DHT22;6943;52.368;9.966;2023-04-03T14:42:57;8.00;99.90
13744;DHT22;6943;52.368;9.966;2023-04-03T14:45:23;7.70;99.90
13744;DHT22;6943;52.368;9.966;2023-04-03T14:47:51;7.80;99.90
13744;DHT22;6943;52.368;9.966;2023-04-03T14:50:27;7.90;99.90
13744;DHT22;6943;52.368;9.966;2023-04-03T14:52:55;7.80;99.90
13744;DHT22;6943;52.368;9.966;2023-04-03T14:55:22;7.90;99.90
13744;DHT22;6943;52.368;9.966;2023-04-03T14:57:48;7.70;99.90
13744;DHT22;6943;52.368;9.966;2023-04-03T15:00:19;7.70;99.90
13744;DHT22;6943;52.368;9.966;2023-04-03T15:02:46;8.00;99.90
13744;DHT22;6943;52.368;9.966;2023-04-03T15:05:13;8.20;99.90
13744;DHT22;6943;52.368;9.966;2023-04-03T15:07:42;8.30;99.90
13744;DHT22;6943;52.368;9.966;2023-04-03T15:10:26;8.20;99.90
13744;DHT22;6943;52.368;9.966;2023-04-03T15:12:52;8.30;99.90
13744;DHT22;6943;52.368;9.966;2023-04-03T15:15:20;8.40;99.90
13744;DHT22;6943;52.368;9.966;2023-04-03T15:17:47;8.50;99.90
13744;DHT22;6943;52.368;9.966;2023-04-03T15:20:20;8.30;99.90
13744;DHT22;6943;52.368;9.966;2023-04-03T15:22:46;8.20;99.90
13744;DHT22;6943;52.368;9.966;2023-04-03T15:25:11;8.00;99.90
13744;DHT22;6943;52.368;9.966;2023-04-03T15:27:37;7.90;99.90
13744;DHT22;6943;52.368;9.966;2023-04-03T15:30:04;7.60;99.90
13744;DHT22;6943;52.368;9.966;2023-04-03T15:32:31;7.60;99.90
13744;DHT22;6943;52.368;9.966;2023-04-03T15:34:56;7.30;99.90
13744;DHT22;6943;52.368;9.966;2023-04-03T15:37:22;7.00;99.90
13744;DHT22;6943;52.368;9.966;2023-04-03T15:39:48;6.90;99.90
13744;DHT22;6943;52.368;9.966;2023-04-03T15:42:13;7.00;99.90
13744;DHT22;6943;52.368;9.966;2023-04-03T15:44:39;7.10;99.90
13744;DHT22;6943;52.368;9.966;2023-04-03T15:47:04;7.00;99.90
13744;DHT22;6943;52.368;9.966;2023-04-03T15:49:32;7.10;99.90
13744;DHT22;6943;52.368;9.966;2023-04-03T15:51:58;7.20;99.90
13744;DHT22;6943;52.368;9.966;2023-04-03T15:54:24;7.20;99.90
13744;DHT22;6943;52.368;9.966;2023-04-03T15:56:50;7.50;99.90
13744;DHT22;6943;52.368;9.966;2023-04-03T15:59:16;7.60;99.90
13744;DHT22;6943;52.368;9.966;2023-04-03T16:01:42;7.80;99.90
13744;DHT22;6943;52.368;9.966;2023-04-03T16:04:08;7.70;99.90
13744;DHT22;6943;52.368;9.966;2023-04-03T16:06:34;7.90;99.90
13744;DHT22;6943;52.368;9.966;2023-04-03T16:09:00;7.90;99.90
13744;DHT22;6943;52.368;9.966;2023-04-03T16:11:26;7.60;99.90
13744;DHT22;6943;52.368;9.966;2023-04-03T16:13:53;7.40;99.90
13744;DHT22;6943;52.368;9.966;2023-04-03T16:16:19;7.50;99.90
13744;DHT22;6943;52.368;9.966;2023-04-03T16:18:45;7.30;99.90
13744;DHT22;6943;52.368;9.966;2023-04-03T16:21:12;7.20;99.90
13744;DHT22;6943;52.368;9.966;2023-04-03T16:23:39;7.20;99.90
13744;DHT22;6943;52.368;9.966;2023-04-03T16:26:05;7.20;99.90
13744;DHT22;6943;52.368;9.966;2023-04-03T16:28:30;7.00;99.90
13744;DHT22;6943;52.368;9.966;2023-04-03T16:30:56;6.90;99.90
13744;DHT22;6943;52.368;9.966;2023-04-03T16:33:22;7.10;99.90
13744;DHT22;6943;52.368;9.966;2023-04-03T16:35:48;7.10;99.90
13744;DHT22;6943;52.368;9.966;2023-04-03T16:38:14;6.90;99.90
13744;DHT22;6943;52.368;9.966;2023-04-03T16:40:40;6.70;99.90
13744;DHT22;6943;52.368;9.966;2023-04-03T16:43:06;6.50;99.90
13744;DHT22;6943;52.368;9.966;2023-04-03T16:45:32;6.40;99.90
13744;DHT22;6943;52.368;9.966;2023-04-03T16:47:57;6.30;99.90
13744;DHT22;6943;52.368;9.966;2023-04-03T16:50:23;6.20;99.90
13744;DHT22;6943;52.368;9.966;2023-04-03T16:52:48;6.10;99.90
13744;DHT22;6943;52.368;9.966;2023-04-03T16:55:14;6.00;99.90
13744;DHT22;6943;52.368;9.966;2023-04-03T16:57:39;6.10;99.90
13744;DHT22;6943;52.368;9.966;2023-04-03T17:00:06;6.10;99.90
13744;DHT22;6943;52.368;9.966;2023-04-03T17:02:32;6.10;99.90
13744;DHT22;6943;52.368;9.966;2023-04-03T17:04:58;6.10;99.90
13744;DHT22;6943;52.368;9.966;2023-04-03T17:07:24;6.10;99.90
13744;DHT22;6943;52.368;9.966;2023-04-03T17:09:50;6.10;99.90
13744;DHT22;6943;52.368;9.966;2023-04-03T17:12:18;6.10;99.90
13744;DHT22;6943;52.368;9.966;2023-04-03T17:14:44;6.10;99.90
13744;DHT22;6943;52.368;9.966;2023-04-03T17:17:12;6.10;99.90
13744;DHT22;6943;52.368;9.966;2023-04-03T17:19:39;6.00;99.90
13744;DHT22;6943;52.368;9.966;2023-04-03T17:22:07;6.10;99.90
13744;DHT22;6943;52.368;9.966;2023-04-03T17:24:33;6.00;99.90
13744;DHT22;6943;52.368;9.966;2023-04-03T17:26:58;5.90;99.90
13744;DHT22;6943;52.368;9.966;2023-04-03T17:29:24;5.80;99.90